Weather reports worldwide

Advertisment
Palma De Mallorca, Spain (8301): temperature & dewpoint: 14.10.2019 22:00:00 - 20.10.2019 22:00:00 (CEST)Palma De Mallorca, Spain (8301): wind speed & gusts: 14.10.2019 22:00:00 - 20.10.2019 22:00:00 (CEST)Palma De Mallorca, Spain (8301): wind direction: 14.10.2019 22:00:00 - 20.10.2019 22:00:00 (CEST)Palma De Mallorca, Spain (8301): precipitation: 14.10.2019 22:00:00 - 20.10.2019 22:00:00 (CEST)
Date & Time tt [°C] td [°C] ff [km/h] ff [kn] fx [km/h] fx [kn] dd rr [mm]
20.10.2019 22:00:00 - - - - - - - -
20.10.2019 21:00:00 - - - - - - - -
20.10.2019 20:00:00 - - - - - - - -
20.10.2019 19:00:00 - - - - - - - -
20.10.2019 18:00:00 22,6 14,4 3 2 17 9 W 0,0
20.10.2019 17:00:00 23,1 15,9 9 5 18 10 SSW 0,0
20.10.2019 16:00:00 23,3 16,1 8 4 22 12 SSW 0,0
20.10.2019 15:00:00 23,9 16,6 7 4 21 12 SW 0,0
20.10.2019 14:00:00 24,0 17,5 7 4 41 22 WSW -
20.10.2019 13:00:00 23,9 19,0 24 13 41 22 SSW 0,0
20.10.2019 12:00:00 24,1 19,4 11 6 32 17 SSW 0,0
20.10.2019 11:00:00 23,7 19,4 16 9 36 19 SSW 0,0
20.10.2019 10:00:00 23,6 19,6 18 10 34 18 SSW 0,0
20.10.2019 09:00:00 23,5 19,1 19 10 38 20 SSW 0,0
20.10.2019 08:00:00 23,6 18,7 18 10 39 21 SSW -
20.10.2019 07:00:00 23,3 18,2 14 8 27 15 SSW 0,0
20.10.2019 06:00:00 22,9 18,0 11 6 34 18 SSW 0,0
20.10.2019 05:00:00 22,6 18,5 15 8 29 16 S 0,0
20.10.2019 04:00:00 22,4 18,8 14 7 26 14 S 0,0
20.10.2019 03:00:00 22,4 19,0 13 7 27 15 S 0,0
20.10.2019 02:00:00 22,3 18,7 14 8 28 15 S -
20.10.2019 01:00:00 22,5 19,3 15 8 29 16 S 0,0
20.10.2019 00:00:00 22,6 18,8 10 6 23 12 S 0,0
19.10.2019 23:00:00 22,7 18,5 11 6 19 11 S 0,0
19.10.2019 22:00:00 22,7 18,2 10 5 21 11 S 0,0
19.10.2019 21:00:00 22,7 18,5 10 6 23 12 S 0,0
19.10.2019 20:00:00 22,9 18,6 11 6 27 14 S -
19.10.2019 19:00:00 22,8 18,2 13 7 28 15 SSW 0,0
19.10.2019 18:00:00 23,1 18,0 9 5 23 12 S 0,0
19.10.2019 17:00:00 23,6 16,4 10 6 22 12 S 0,0
19.10.2019 16:00:00 24,2 16,5 11 6 27 15 S 0,0
19.10.2019 15:00:00 24,1 15,9 13 7 27 15 SSW 0,0
19.10.2019 14:00:00 24,3 16,0 12 6 29 16 SSW -
19.10.2019 13:00:00 24,3 16,0 13 7 58 31 SSW 0,0
19.10.2019 12:00:00 24,1 16,4 10 5 22 12 SSW 0,0
19.10.2019 11:00:00 23,2 16,0 11 6 23 13 S 0,0
19.10.2019 10:00:00 22,7 17,0 9 5 16 8 S 0,0
19.10.2019 09:00:00 19,5 17,9 4 2 9 5 NNW 0,0
19.10.2019 08:00:00 19,1 17,5 1 0 6 4 N -
19.10.2019 07:00:00 19,1 17,5 0 0 0 0 N 0,0
19.10.2019 06:00:00 18,9 17,2 0 0 0 0 N 0,0
19.10.2019 05:00:00 19,4 17,7 0 0 0 0 N 0,0
19.10.2019 04:00:00 19,5 17,6 0 0 0 0 N 0,0
19.10.2019 03:00:00 19,7 17,9 0 0 0 0 N 0,0
19.10.2019 02:00:00 19,8 17,5 0 0 3 2 N -
19.10.2019 01:00:00 20,3 17,5 1 1 6 4 N 0,0
19.10.2019 00:00:00 20,0 17,2 3 2 4 2 N 0,0
18.10.2019 23:00:00 20,6 17,1 0 0 3 2 N 0,0
18.10.2019 22:00:00 21,2 17,4 0 0 2 1 N 0,0
18.10.2019 21:00:00 22,2 18,0 0 0 10 5 N 0,0
18.10.2019 20:00:00 23,3 18,4 4 2 12 7 SSW -
18.10.2019 19:00:00 23,4 18,3 5 3 16 9 SSW 0,0
18.10.2019 18:00:00 24,1 17,6 7 4 21 11 SSW 0,0
18.10.2019 17:00:00 24,2 17,7 11 6 25 13 S 0,0
18.10.2019 16:00:00 24,7 16,6 13 7 24 13 SSW 0,0
18.10.2019 15:00:00 24,9 17,1 12 6 24 13 S 0,0
18.10.2019 14:00:00 24,4 16,4 9 5 19 10 S -
18.10.2019 13:00:00 23,7 17,2 8 4 14 8 S 0,0
18.10.2019 12:00:00 23,5 17,5 0 0 9 5 S 0,0
18.10.2019 11:00:00 22,8 16,4 0 0 0 0 N 0,0
18.10.2019 10:00:00 21,3 16,5 0 0 0 0 N 0,0
18.10.2019 09:00:00 18,6 16,2 0 0 0 0 N 0,1
18.10.2019 08:00:00 17,4 15,7 0 0 5 3 N -
18.10.2019 07:00:00 17,3 15,6 0 0 5 3 N 0,0
18.10.2019 06:00:00 17,5 15,9 0 0 3 2 N 0,0
18.10.2019 05:00:00 17,7 15,7 0 0 6 3 N 0,0
18.10.2019 04:00:00 18,1 15,9 1 1 5 3 N 0,0
18.10.2019 03:00:00 17,9 15,3 1 1 5 3 NNE 0,0
18.10.2019 02:00:00 18,3 15,3 0 0 4 2 N -
18.10.2019 01:00:00 18,7 14,6 1 1 5 3 NNE 0,0
18.10.2019 00:00:00 19,0 13,9 3 2 5 3 N 0,0
17.10.2019 23:00:00 18,9 12,8 3 2 6 4 N 0,0
17.10.2019 22:00:00 19,3 12,7 1 0 4 2 SSE 0,0
17.10.2019 21:00:00 20,2 13,9 1 1 4 2 NNW 0,0
17.10.2019 20:00:00 21,6 15,2 1 1 17 9 NNW -
17.10.2019 19:00:00 22,6 15,7 5 3 17 9 WSW 0,0
17.10.2019 18:00:00 23,2 16,0 10 5 24 13 SSW 0,0
17.10.2019 17:00:00 23,6 15,6 10 5 23 13 S 0,0
17.10.2019 16:00:00 24,1 16,9 14 8 26 14 SSW 0,0
17.10.2019 15:00:00 23,9 15,4 13 7 34 18 SSW 0,0
17.10.2019 14:00:00 24,2 15,2 14 7 29 16 S -
17.10.2019 13:00:00 24,1 16,1 11 6 26 14 SSW 0,0
17.10.2019 12:00:00 23,2 15,5 11 6 22 12 S 0,0
17.10.2019 11:00:00 22,6 15,4 3 2 9 5 E 0,0
17.10.2019 10:00:00 20,3 14,6 5 3 10 5 NE 0,0
17.10.2019 09:00:00 18,3 14,8 3 2 7 4 NNE 0,0
17.10.2019 08:00:00 17,7 14,2 0 0 6 3 NNE -
17.10.2019 07:00:00 18,3 14,4 3 1 10 5 N 0,0
17.10.2019 06:00:00 17,5 14,0 3 2 7 4 NNE 0,0
17.10.2019 05:00:00 17,9 14,0 2 1 5 3 NNE 0,0
17.10.2019 04:00:00 18,3 13,8 2 1 9 5 N 0,0
17.10.2019 03:00:00 17,7 12,8 5 3 9 5 N 0,0
17.10.2019 02:00:00 18,4 13,3 4 2 7 4 NNE -
17.10.2019 01:00:00 19,6 13,3 3 2 6 4 SW 0,0
17.10.2019 00:00:00 20,1 13,1 2 1 10 5 W 0,0
16.10.2019 23:00:00 18,7 11,8 0 0 6 3 W 0,0
16.10.2019 22:00:00 18,6 10,6 4 2 5 3 N 0,0
16.10.2019 21:00:00 19,5 9,9 1 0 4 2 N 0,0
16.10.2019 20:00:00 20,5 8,8 1 1 11 6 WNW -
16.10.2019 19:00:00 21,7 9,3 2 1 16 9 WSW 0,0
16.10.2019 18:00:00 22,6 10,0 7 4 23 13 SW 0,0
16.10.2019 17:00:00 23,0 11,1 8 5 25 13 SW 0,0
16.10.2019 16:00:00 23,6 11,3 12 7 29 16 S 0,0
16.10.2019 15:00:00 23,4 11,8 14 8 27 14 SSW 0,0
16.10.2019 14:00:00 23,9 11,2 11 6 26 14 SSW -
16.10.2019 13:00:00 23,3 10,4 11 6 21 12 S 0,0
16.10.2019 12:00:00 21,7 11,7 3 2 10 5 SSE 0,0
16.10.2019 11:00:00 21,0 10,2 3 2 10 6 ENE 0,0
16.10.2019 10:00:00 19,5 10,2 5 3 9 5 NNE 0,0
16.10.2019 09:00:00 16,6 10,4 4 2 6 4 NNE 0,0
16.10.2019 08:00:00 14,8 9,8 4 2 5 3 NNE -
16.10.2019 07:00:00 14,4 9,2 4 2 7 4 NNE 0,0
16.10.2019 06:00:00 14,5 9,0 3 2 6 4 NNE 0,0
16.10.2019 05:00:00 14,5 9,0 3 2 5 3 NNE 0,0
16.10.2019 04:00:00 14,6 8,9 3 2 6 4 N 0,0
16.10.2019 03:00:00 14,7 8,7 4 2 8 4 NNE 0,0
16.10.2019 02:00:00 15,1 8,4 3 2 12 6 NNE -
16.10.2019 01:00:00 15,5 7,7 4 2 8 4 N 0,0
16.10.2019 00:00:00 15,8 7,3 2 1 9 5 NNE 0,0
15.10.2019 23:00:00 17,6 7,0 4 2 9 5 NW 0,0
15.10.2019 22:00:00 17,7 7,1 4 2 9 5 W 0,0
15.10.2019 21:00:00 17,5 6,4 2 1 8 5 NNW 0,0
15.10.2019 20:00:00 18,3 5,5 3 2 10 6 N -
15.10.2019 19:00:00 19,3 5,8 3 1 13 7 NW 0,0
15.10.2019 18:00:00 20,0 5,9 6 3 19 10 NW 0,0
15.10.2019 17:00:00 20,3 5,5 12 6 23 13 NW 0,0
15.10.2019 16:00:00 22,7 7,7 5 3 21 11 W 0,0
15.10.2019 15:00:00 21,7 7,6 7 4 26 14 NNW 0,0
15.10.2019 14:00:00 22,1 7,8 7 4 25 13 NW -
15.10.2019 13:00:00 21,2 8,1 7 4 23 12 N 0,0
15.10.2019 12:00:00 20,5 7,4 9 5 26 14 NW 0,0
15.10.2019 11:00:00 20,4 8,4 14 7 29 16 NW 0,0
15.10.2019 10:00:00 20,1 8,8 11 6 29 16 NNW 0,0
15.10.2019 09:00:00 19,3 8,9 11 6 33 18 NNW 0,0
15.10.2019 08:00:00 19,4 10,6 10 6 25 14 NNW -
15.10.2019 07:00:00 20,3 13,3 3 2 31 17 W 0,0
15.10.2019 06:00:00 20,8 14,4 10 5 33 18 W 0,0
15.10.2019 05:00:00 19,5 17,1 3 2 13 7 W 0,1
15.10.2019 04:00:00 19,3 17,6 1 1 4 2 SW 0,7
15.10.2019 03:00:00 19,4 17,7 3 1 14 7 NW 0,2
15.10.2019 02:00:00 19,7 17,6 7 4 28 15 SSW -
15.10.2019 01:00:00 21,7 18,9 5 3 12 6 NNW 0,0
15.10.2019 00:00:00 21,7 18,9 3 2 6 4 NNW 0,0
14.10.2019 23:00:00 22,3 18,9 3 1 11 6 NNW 0,0
14.10.2019 22:00:00 22,9 19,3 4 2 18 10 NE 0,1

tt = temperature
td = dewpoint
ff = wind speed
fx = gusts
dd = wind direction
rr = precipitation

Next stations